createdAt,value
2023-04-07T00:04:55.681Z,5.82
2023-04-07T00:10:10.392Z,4.90
2023-04-07T00:15:25.694Z,4.60
2023-04-07T00:20:40.443Z,4.63
2023-04-07T00:25:55.714Z,5.10
2023-04-07T00:31:10.679Z,4.10
2023-04-07T00:36:25.697Z,4.45
2023-04-07T00:41:41.089Z,3.97
2023-04-07T00:46:56.748Z,4.15
2023-04-07T00:52:11.660Z,3.30
2023-04-07T00:57:26.443Z,3.45
2023-04-07T01:02:42.136Z,3.55
2023-04-07T01:07:57.704Z,2.97
2023-04-07T01:13:12.680Z,3.05
2023-04-07T01:18:27.625Z,2.90
2023-04-07T01:23:43.633Z,3.35
2023-04-07T01:28:58.695Z,3.13
2023-04-07T01:34:14.985Z,3.65
2023-04-07T01:39:30.951Z,3.30
2023-04-07T01:44:46.981Z,3.30
2023-04-07T01:50:02.642Z,3.88
2023-04-07T01:55:17.643Z,3.45
2023-04-07T02:00:42.771Z,3.40
2023-04-07T02:06:00.735Z,3.70
2023-04-07T02:11:15.732Z,3.45
2023-04-07T02:16:33.694Z,3.30
2023-04-07T02:21:48.692Z,3.53
2023-04-07T02:27:03.444Z,3.10
2023-04-07T02:32:18.701Z,3.30
2023-04-07T02:37:33.659Z,3.45
2023-04-07T02:42:48.659Z,4.25
2023-04-07T02:48:04.701Z,3.63
2023-04-07T02:53:19.938Z,3.97
2023-04-07T02:58:35.974Z,3.58
2023-04-07T03:03:53.161Z,3.38
2023-04-07T03:09:08.486Z,3.88
2023-04-07T03:14:23.654Z,3.40
2023-04-07T03:19:39.130Z,2.88
2023-04-07T03:24:54.673Z,3.42
2023-04-07T03:30:09.659Z,3.63
2023-04-07T03:35:26.650Z,4.03
2023-04-07T03:40:41.670Z,5.38
2023-04-07T03:45:56.816Z,4.13
2023-04-07T03:51:12.638Z,4.45
2023-04-07T03:56:29.705Z,3.40
2023-04-07T04:01:52.767Z,4.30
2023-04-07T04:07:08.688Z,3.85
2023-04-07T04:12:31.010Z,3.42
2023-04-07T04:17:50.723Z,2.97
2023-04-07T04:23:06.680Z,3.13
2023-04-07T04:28:22.775Z,3.50
2023-04-07T04:33:37.702Z,3.63
2023-04-07T04:38:52.682Z,3.55
2023-04-07T04:44:07.931Z,4.13
2023-04-07T04:49:24.703Z,4.28
2023-04-07T04:54:42.673Z,3.65
2023-04-07T04:59:58.654Z,4.13
2023-04-07T05:05:13.491Z,4.20
2023-04-07T05:10:30.649Z,3.67
2023-04-07T05:15:45.718Z,4.40
2023-04-07T05:21:00.676Z,3.95
2023-04-07T05:26:17.999Z,3.60
2023-04-07T05:31:33.751Z,4.78
2023-04-07T05:36:53.074Z,32.15
2023-04-07T05:42:08.671Z,49.85
2023-04-07T05:47:26.689Z,41.97
2023-04-07T05:52:42.477Z,37.20
2023-04-07T05:58:03.733Z,35.17
2023-04-07T06:03:20.785Z,33.08
2023-04-07T06:08:41.714Z,28.10
2023-04-07T06:13:57.006Z,26.23
2023-04-07T06:19:12.460Z,25.73
2023-04-07T06:24:27.716Z,23.95
2023-04-07T06:29:44.959Z,24.17
2023-04-07T06:35:01.665Z,21.77
2023-04-07T06:40:17.030Z,19.67
2023-04-07T06:45:32.725Z,19.08
2023-04-07T06:50:47.758Z,18.15
2023-04-07T06:56:02.477Z,17.58
2023-04-07T07:01:17.771Z,21.73
2023-04-07T07:06:32.662Z,22.52
2023-04-07T07:11:47.479Z,22.27
2023-04-07T07:17:02.717Z,22.05
2023-04-07T07:22:17.991Z,18.67
2023-04-07T07:27:33.476Z,17.15
2023-04-07T07:32:48.748Z,15.98
2023-04-07T07:38:03.919Z,15.75
2023-04-07T07:43:19.062Z,15.18
2023-04-07T07:48:34.775Z,16.20
2023-04-07T07:53:50.038Z,12.75
2023-04-07T07:59:05.679Z,13.02
2023-04-07T08:04:20.776Z,13.30
2023-04-07T08:09:36.015Z,10.88
2023-04-07T08:14:51.933Z,10.57
2023-04-07T08:20:07.694Z,10.70
2023-04-07T08:25:22.480Z,8.48
2023-04-07T08:30:37.752Z,7.72
2023-04-07T08:35:53.031Z,7.97
2023-04-07T08:41:08.966Z,7.30
2023-04-07T08:46:24.581Z,7.68
2023-04-07T08:51:39.669Z,6.97
2023-04-07T08:56:54.664Z,7.40
2023-04-07T09:02:09.763Z,6.10
2023-04-07T09:07:24.694Z,5.45
2023-04-07T09:12:39.674Z,5.80
2023-04-07T09:17:54.699Z,5.57
2023-04-07T09:23:10.023Z,5.60
2023-04-07T09:28:26.754Z,5.55
2023-04-07T09:33:41.694Z,5.72
2023-04-07T09:38:56.703Z,4.95
2023-04-07T09:44:11.740Z,4.50
2023-04-07T09:49:26.693Z,4.55
2023-04-07T09:54:41.776Z,4.55
2023-04-07T09:59:56.670Z,5.03
2023-04-07T10:05:21.675Z,4.50
2023-04-07T10:10:36.881Z,4.65
2023-04-07T10:15:51.717Z,3.40
2023-04-07T10:21:06.749Z,3.97
2023-04-07T10:26:22.060Z,4.15
2023-04-07T10:31:37.844Z,4.20
2023-04-07T10:36:52.689Z,3.70
2023-04-07T10:42:08.076Z,3.22
2023-04-07T10:47:24.012Z,4.22
2023-04-07T10:52:39.716Z,3.92
2023-04-07T10:57:54.756Z,3.80
2023-04-07T11:03:10.964Z,3.30
2023-04-07T11:08:26.722Z,3.00
2023-04-07T11:13:41.784Z,3.15
2023-04-07T11:18:56.724Z,3.13
2023-04-07T11:24:11.795Z,3.35
2023-04-07T11:29:26.666Z,3.72
2023-04-07T11:34:41.714Z,3.40
2023-04-07T11:39:57.065Z,2.88
2023-04-07T11:45:12.832Z,3.10
2023-04-07T11:50:27.701Z,3.05
2023-04-07T11:55:42.980Z,3.40
2023-04-07T12:00:58.757Z,2.55
2023-04-07T12:06:13.665Z,2.88
2023-04-07T12:11:28.748Z,2.35
2023-04-07T12:16:44.806Z,2.33
2023-04-07T12:22:00.720Z,2.53
2023-04-07T12:27:15.469Z,2.50
2023-04-07T12:32:30.764Z,2.10
2023-04-07T12:37:45.733Z,2.53
2023-04-07T12:43:00.762Z,2.67
2023-04-07T12:48:15.733Z,2.65
2023-04-07T12:53:30.720Z,2.45
2023-04-07T12:58:45.703Z,2.38
2023-04-07T13:04:00.901Z,2.20
2023-04-07T13:09:15.773Z,2.30
2023-04-07T13:14:30.701Z,2.33
2023-04-07T13:19:46.056Z,2.25
2023-04-07T13:25:02.074Z,2.22
2023-04-07T13:30:17.785Z,3.05
2023-04-07T13:35:32.842Z,2.03
2023-04-07T13:40:48.126Z,2.70
2023-04-07T13:51:20.682Z,2.40
2023-04-07T13:56:35.897Z,2.38
2023-04-07T14:01:50.832Z,2.80
2023-04-07T14:07:05.485Z,2.05
2023-04-07T14:12:20.679Z,1.65
2023-04-07T14:17:35.744Z,2.45
2023-04-07T14:22:50.700Z,2.45
2023-04-07T14:28:05.774Z,2.38
2023-04-07T14:33:20.759Z,2.00
2023-04-07T14:38:35.467Z,2.05
2023-04-07T14:43:52.332Z,2.22
2023-04-07T14:49:08.732Z,2.10
2023-04-07T14:54:23.778Z,2.15
2023-04-07T15:00:15.698Z,2.25
2023-04-07T15:05:30.734Z,2.67
2023-04-07T15:10:45.445Z,2.15
2023-04-07T15:16:00.753Z,2.10
2023-04-07T15:21:15.728Z,2.25
2023-04-07T15:26:30.738Z,2.53
2023-04-07T15:31:45.815Z,2.00
2023-04-07T15:37:02.785Z,2.17
2023-04-07T15:42:19.498Z,2.38
2023-04-07T15:47:34.777Z,2.10
2023-04-07T15:52:49.787Z,2.40
2023-04-07T15:58:04.768Z,2.15
2023-04-07T16:03:19.831Z,2.40
2023-04-07T16:08:34.748Z,2.60
2023-04-07T16:13:50.034Z,2.33
2023-04-07T16:19:05.813Z,2.33
2023-04-07T16:24:20.731Z,2.63
2023-04-07T16:29:35.744Z,2.72
2023-04-07T16:34:51.171Z,2.38
2023-04-07T16:40:06.760Z,1.88
2023-04-07T16:45:21.772Z,1.95
2023-04-07T16:50:36.803Z,1.85
2023-04-07T16:55:51.741Z,2.60
2023-04-07T17:01:06.802Z,1.80
2023-04-07T17:06:21.766Z,2.63
2023-04-07T17:11:37.097Z,2.45
2023-04-07T17:16:52.760Z,2.30
2023-04-07T17:22:07.798Z,2.40
2023-04-07T17:27:22.766Z,2.42
2023-04-07T17:32:37.789Z,2.40
2023-04-07T17:37:52.739Z,2.10
2023-04-07T17:43:08.075Z,2.50
2023-04-07T17:48:24.033Z,1.85
2023-04-07T17:53:39.824Z,2.10
2023-04-07T17:58:54.687Z,2.15
2023-04-07T18:04:09.795Z,2.05
2023-04-07T18:09:24.514Z,2.13
2023-04-07T18:14:40.059Z,2.42
2023-04-07T18:19:55.753Z,2.33
2023-04-07T18:25:10.538Z,2.80
2023-04-07T18:30:26.090Z,2.72
2023-04-07T18:35:41.790Z,2.35
2023-04-07T18:40:56.737Z,2.35
2023-04-07T18:46:12.116Z,3.17
2023-04-07T18:51:27.707Z,2.63
2023-04-07T18:56:43.090Z,2.92
2023-04-07T19:01:58.578Z,2.85
2023-04-07T19:07:13.832Z,2.65
2023-04-07T19:12:28.721Z,4.15
2023-04-07T19:17:43.793Z,2.72
2023-04-07T19:22:58.711Z,2.67
2023-04-07T19:28:13.758Z,3.67
2023-04-07T19:33:28.787Z,2.83
2023-04-07T19:38:43.756Z,2.95
2023-04-07T19:43:58.751Z,3.00
2023-04-07T19:49:13.773Z,2.95
2023-04-07T19:54:28.751Z,3.70
2023-04-07T19:59:43.774Z,3.53
2023-04-07T20:04:59.081Z,3.95
2023-04-07T20:10:14.755Z,4.40
2023-04-07T20:15:29.772Z,4.13
2023-04-07T20:20:44.748Z,4.25
2023-04-07T20:25:59.741Z,4.97
2023-04-07T20:31:14.789Z,4.22
2023-04-07T20:36:31.097Z,4.20
2023-04-07T20:41:46.751Z,4.65
2023-04-07T20:47:01.534Z,3.67
2023-04-07T20:52:16.731Z,3.97
2023-04-07T20:57:31.774Z,3.42
2023-04-07T21:02:46.649Z,4.05
2023-04-07T21:08:01.713Z,3.88
2023-04-07T21:13:16.807Z,4.88
2023-04-07T21:18:31.731Z,4.15
2023-04-07T21:23:47.043Z,3.67
2023-04-07T21:29:02.780Z,3.95
2023-04-07T21:34:17.525Z,3.50
2023-04-07T21:39:32.768Z,3.53
2023-04-07T21:44:47.922Z,3.42
2023-04-07T21:50:03.768Z,3.63
2023-04-07T21:55:18.795Z,3.42
2023-04-07T22:00:33.791Z,4.18
2023-04-07T22:05:48.834Z,4.32
2023-04-07T22:11:03.781Z,4.03
2023-04-07T22:16:18.864Z,4.70
2023-04-07T22:21:33.745Z,5.28
2023-04-07T22:26:48.513Z,4.32
2023-04-07T22:32:03.761Z,4.30
2023-04-07T22:37:19.201Z,4.43
2023-04-07T22:42:34.845Z,4.07
2023-04-07T22:47:49.782Z,4.60
2023-04-07T22:53:04.800Z,4.28
2023-04-07T22:58:20.721Z,3.95
2023-04-07T23:03:35.909Z,3.38
2023-04-07T23:08:50.980Z,3.50
2023-04-07T23:14:06.773Z,3.58
2023-04-07T23:19:21.791Z,3.45
2023-04-07T23:24:36.712Z,3.53
2023-04-07T23:29:51.781Z,3.30
2023-04-07T23:35:06.730Z,3.92
2023-04-07T23:40:21.759Z,3.00
2023-04-07T23:45:36.874Z,3.38
2023-04-07T23:50:51.736Z,2.80
2023-04-07T23:56:07.100Z,2.70
